sensor_id;sensor_type;location;lat;lon;timestamp;pressure;altitude;pressure_sealevel;temperature
64175;BMP280;50469;50.438;-119.202;2022-09-09T00:04:33;97659.03;;;24.00
64175;BMP280;50469;50.438;-119.202;2022-09-09T00:07:19;97655.69;;;23.38
64175;BMP280;50469;50.438;-119.202;2022-09-09T00:12:48;97666.84;;;23.61
64175;BMP280;50469;50.438;-119.202;2022-09-09T00:15:36;97660.19;;;23.62
64175;BMP280;50469;50.438;-119.202;2022-09-09T00:23:27;97658.16;;;23.36
64175;BMP280;50469;50.438;-119.202;2022-09-09T00:26:10;97666.97;;;23.98
64175;BMP280;50469;50.438;-119.202;2022-09-09T00:28:50;97665.66;;;23.88
64175;BMP280;50469;50.438;-119.202;2022-09-09T00:31:23;97682.13;;;23.47
64175;BMP280;50469;50.438;-119.202;2022-09-09T00:33:53;97677.19;;;23.51
64175;BMP280;50469;50.438;-119.202;2022-09-09T00:36:25;97685.56;;;24.15
64175;BMP280;50469;50.438;-119.202;2022-09-09T00:38:59;97679.66;;;23.29
64175;BMP280;50469;50.438;-119.202;2022-09-09T00:44:31;97681.53;;;22.67
64175;BMP280;50469;50.438;-119.202;2022-09-09T00:55:18;97828.19;;;26.14
64175;BMP280;50469;50.438;-119.202;2022-09-09T00:57:51;97857.06;;;28.85
64175;BMP280;50469;50.438;-119.202;2022-09-09T01:00:26;97713.72;;;24.52
64175;BMP280;50469;50.438;-119.202;2022-09-09T01:06:35;97688.22;;;23.36
64175;BMP280;50469;50.438;-119.202;2022-09-09T01:11:25;97687.81;;;23.08
64175;BMP280;50469;50.438;-119.202;2022-09-09T01:14:05;97686.22;;;22.81
64175;BMP280;50469;50.438;-119.202;2022-09-09T01:16:38;97691.47;;;22.85
64175;BMP280;50469;50.438;-119.202;2022-09-09T01:19:07;97692.03;;;22.89
64175;BMP280;50469;50.438;-119.202;2022-09-09T01:21:54;97698.09;;;22.63
64175;BMP280;50469;50.438;-119.202;2022-09-09T01:25:08;97700.88;;;22.34
64175;BMP280;50469;50.438;-119.202;2022-09-09T01:27:29;97704.25;;;22.14
64175;BMP280;50469;50.438;-119.202;2022-09-09T01:29:57;97698.31;;;22.15
64175;BMP280;50469;50.438;-119.202;2022-09-09T01:32:46;97691.97;;;21.95
64175;BMP280;50469;50.438;-119.202;2022-09-09T01:37:55;97709.34;;;21.58
64175;BMP280;50469;50.438;-119.202;2022-09-09T01:40:26;97705.94;;;21.25
64175;BMP280;50469;50.438;-119.202;2022-09-09T01:42:57;97708.53;;;21.19
64175;BMP280;50469;50.438;-119.202;2022-09-09T01:45:25;97710.94;;;21.17
64175;BMP280;50469;50.438;-119.202;2022-09-09T01:47:53;97712.38;;;21.03
64175;BMP280;50469;50.438;-119.202;2022-09-09T01:50:21;97708.38;;;20.80
64175;BMP280;50469;50.438;-119.202;2022-09-09T01:52:55;97702.16;;;20.80
64175;BMP280;50469;50.438;-119.202;2022-09-09T01:55:37;97707.94;;;20.73
64175;BMP280;50469;50.438;-119.202;2022-09-09T02:00:41;97709.69;;;20.42
64175;BMP280;50469;50.438;-119.202;2022-09-09T02:03:29;97719.66;;;20.18
64175;BMP280;50469;50.438;-119.202;2022-09-09T02:06:20;97712.72;;;20.17
64175;BMP280;50469;50.438;-119.202;2022-09-09T02:08:55;97716.53;;;20.01
64175;BMP280;50469;50.438;-119.202;2022-09-09T02:11:28;97709.28;;;19.89
64175;BMP280;50469;50.438;-119.202;2022-09-09T02:14:17;97705.31;;;19.62
64175;BMP280;50469;50.438;-119.202;2022-09-09T02:16:51;97706.19;;;19.59
64175;BMP280;50469;50.438;-119.202;2022-09-09T02:19:27;97708.97;;;19.28
64175;BMP280;50469;50.438;-119.202;2022-09-09T02:21:59;97702.44;;;19.07
64175;BMP280;50469;50.438;-119.202;2022-09-09T02:24:33;97706.72;;;19.27
64175;BMP280;50469;50.438;-119.202;2022-09-09T02:27:03;97705.81;;;19.30
64175;BMP280;50469;50.438;-119.202;2022-09-09T02:29:41;97709.28;;;19.30
64175;BMP280;50469;50.438;-119.202;2022-09-09T02:32:17;97731.03;;;18.77
64175;BMP280;50469;50.438;-119.202;2022-09-09T02:34:55;97728.94;;;18.81
64175;BMP280;50469;50.438;-119.202;2022-09-09T02:37:29;97726.50;;;18.30
64175;BMP280;50469;50.438;-119.202;2022-09-09T02:39:59;97738.53;;;17.94
64175;BMP280;50469;50.438;-119.202;2022-09-09T02:42:27;97742.59;;;17.77
64175;BMP280;50469;50.438;-119.202;2022-09-09T02:44:58;97732.28;;;17.72
64175;BMP280;50469;50.438;-119.202;2022-09-09T02:50:32;97745.84;;;17.21
64175;BMP280;50469;50.438;-119.202;2022-09-09T02:54:06;97745.19;;;17.17
64175;BMP280;50469;50.438;-119.202;2022-09-09T02:56:16;97739.56;;;16.98
64175;BMP280;50469;50.438;-119.202;2022-09-09T02:58:47;97744.97;;;16.40
64175;BMP280;50469;50.438;-119.202;2022-09-09T03:01:16;97741.13;;;16.54
64175;BMP280;50469;50.438;-119.202;2022-09-09T03:03:44;97754.25;;;16.39
64175;BMP280;50469;50.438;-119.202;2022-09-09T03:06:15;97751.13;;;16.70
64175;BMP280;50469;50.438;-119.202;2022-09-09T03:08:44;97750.19;;;16.76
64175;BMP280;50469;50.438;-119.202;2022-09-09T03:11:16;97751.19;;;16.24
64175;BMP280;50469;50.438;-119.202;2022-09-09T03:13:44;97743.50;;;15.90
64175;BMP280;50469;50.438;-119.202;2022-09-09T03:16:16;97747.59;;;16.43
64175;BMP280;50469;50.438;-119.202;2022-09-09T03:18:46;97741.53;;;16.52
64175;BMP280;50469;50.438;-119.202;2022-09-09T03:21:17;97741.59;;;16.19
64175;BMP280;50469;50.438;-119.202;2022-09-09T03:23:48;97749.97;;;16.09
64175;BMP280;50469;50.438;-119.202;2022-09-09T03:26:19;97746.69;;;16.17
64175;BMP280;50469;50.438;-119.202;2022-09-09T03:28:49;97734.81;;;15.98
64175;BMP280;50469;50.438;-119.202;2022-09-09T03:31:20;97742.09;;;16.31
64175;BMP280;50469;50.438;-119.202;2022-09-09T03:33:51;97743.03;;;16.40
64175;BMP280;50469;50.438;-119.202;2022-09-09T03:36:19;97742.09;;;16.31
64175;BMP280;50469;50.438;-119.202;2022-09-09T03:38:47;97753.59;;;16.35
64175;BMP280;50469;50.438;-119.202;2022-09-09T03:41:18;97754.75;;;16.50
64175;BMP280;50469;50.438;-119.202;2022-09-09T03:43:46;97753.88;;;16.08
64175;BMP280;50469;50.438;-119.202;2022-09-09T03:46:14;97753.78;;;15.95
64175;BMP280;50469;50.438;-119.202;2022-09-09T03:48:42;97753.72;;;15.98
64175;BMP280;50469;50.438;-119.202;2022-09-09T03:51:10;97759.44;;;15.84
64175;BMP280;50469;50.438;-119.202;2022-09-09T03:53:41;97751.00;;;15.66
64175;BMP280;50469;50.438;-119.202;2022-09-09T03:56:10;97748.38;;;16.11
64175;BMP280;50469;50.438;-119.202;2022-09-09T03:58:38;97758.81;;;15.77
64175;BMP280;50469;50.438;-119.202;2022-09-09T04:01:08;97752.34;;;15.74
64175;BMP280;50469;50.438;-119.202;2022-09-09T04:03:37;97757.75;;;15.58
64175;BMP280;50469;50.438;-119.202;2022-09-09T04:06:06;97763.56;;;15.72
64175;BMP280;50469;50.438;-119.202;2022-09-09T04:08:37;97755.13;;;15.87
64175;BMP280;50469;50.438;-119.202;2022-09-09T04:11:05;97751.47;;;15.61
64175;BMP280;50469;50.438;-119.202;2022-09-09T04:13:34;97750.34;;;15.42
64175;BMP280;50469;50.438;-119.202;2022-09-09T04:16:03;97752.63;;;15.43
64175;BMP280;50469;50.438;-119.202;2022-09-09T04:18:33;97757.75;;;15.58
64175;BMP280;50469;50.438;-119.202;2022-09-09T04:21:04;97753.22;;;15.51
64175;BMP280;50469;50.438;-119.202;2022-09-09T04:23:32;97753.50;;;15.20
64175;BMP280;50469;50.438;-119.202;2022-09-09T04:26:02;97758.06;;;15.23
64175;BMP280;50469;50.438;-119.202;2022-09-09T04:28:34;97755.84;;;14.98
64175;BMP280;50469;50.438;-119.202;2022-09-09T04:31:10;97763.31;;;14.71
64175;BMP280;50469;50.438;-119.202;2022-09-09T04:33:44;97762.03;;;14.55
64175;BMP280;50469;50.438;-119.202;2022-09-09T04:36:12;97759.78;;;14.74
64175;BMP280;50469;50.438;-119.202;2022-09-09T04:38:43;97760.25;;;14.69
64175;BMP280;50469;50.438;-119.202;2022-09-09T04:41:11;97771.31;;;14.31
64175;BMP280;50469;50.438;-119.202;2022-09-09T04:43:39;97774.53;;;14.46
64175;BMP280;50469;50.438;-119.202;2022-09-09T04:46:08;97771.06;;;14.45
64175;BMP280;50469;50.438;-119.202;2022-09-09T04:48:36;97766.94;;;14.41
64175;BMP280;50469;50.438;-119.202;2022-09-09T04:51:06;97765.09;;;14.34
64175;BMP280;50469;50.438;-119.202;2022-09-09T04:53:36;97762.44;;;14.07
64175;BMP280;50469;50.438;-119.202;2022-09-09T04:58:37;97770.63;;;14.00
64175;BMP280;50469;50.438;-119.202;2022-09-09T05:01:11;97764.25;;;13.90
64175;BMP280;50469;50.438;-119.202;2022-09-09T05:03:39;97760.53;;;13.80
64175;BMP280;50469;50.438;-119.202;2022-09-09T05:06:10;97759.09;;;13.45
64175;BMP280;50469;50.438;-119.202;2022-09-09T05:08:40;97766.53;;;13.61
64175;BMP280;50469;50.438;-119.202;2022-09-09T05:13:42;97759.50;;;13.70
64175;BMP280;50469;50.438;-119.202;2022-09-09T05:16:12;97745.13;;;13.81
64175;BMP280;50469;50.438;-119.202;2022-09-09T05:18:41;97765.78;;;13.60
64175;BMP280;50469;50.438;-119.202;2022-09-09T05:21:12;97761.94;;;13.31
64175;BMP280;50469;50.438;-119.202;2022-09-09T05:23:41;97760.69;;;13.05
64175;BMP280;50469;50.438;-119.202;2022-09-09T05:26:15;97765.31;;;13.04
64175;BMP280;50469;50.438;-119.202;2022-09-09T05:28:44;97768.41;;;13.02
64175;BMP280;50469;50.438;-119.202;2022-09-09T05:31:17;97775.91;;;12.84
64175;BMP280;50469;50.438;-119.202;2022-09-09T05:33:46;97774.78;;;12.78
64175;BMP280;50469;50.438;-119.202;2022-09-09T05:36:22;97782.78;;;12.44
64175;BMP280;50469;50.438;-119.202;2022-09-09T05:38:50;97775.56;;;12.37
64175;BMP280;50469;50.438;-119.202;2022-09-09T05:41:22;97782.81;;;12.33
64175;BMP280;50469;50.438;-119.202;2022-09-09T05:43:50;97785.56;;;12.29
64175;BMP280;50469;50.438;-119.202;2022-09-09T05:46:20;97782.88;;;12.29
64175;BMP280;50469;50.438;-119.202;2022-09-09T05:48:53;97778.19;;;11.74
64175;BMP280;50469;50.438;-119.202;2022-09-09T05:51:26;97778.25;;;11.71
64175;BMP280;50469;50.438;-119.202;2022-09-09T05:53:56;97782.81;;;11.77
64175;BMP280;50469;50.438;-119.202;2022-09-09T05:56:31;97775.22;;;11.61
64175;BMP280;50469;50.438;-119.202;2022-09-09T05:58:59;97769.88;;;11.54
64175;BMP280;50469;50.438;-119.202;2022-09-09T06:01:32;97769.84;;;11.58
64175;BMP280;50469;50.438;-119.202;2022-09-09T06:04:03;97777.53;;;11.59
64175;BMP280;50469;50.438;-119.202;2022-09-09T06:06:34;97777.94;;;11.51
64175;BMP280;50469;50.438;-119.202;2022-09-09T06:09:03;97772.19;;;11.52
64175;BMP280;50469;50.438;-119.202;2022-09-09T06:11:32;97777.56;;;11.56
64175;BMP280;50469;50.438;-119.202;2022-09-09T06:14:01;97787.44;;;11.66
64175;BMP280;50469;50.438;-119.202;2022-09-09T06:16:32;97791.13;;;10.98
64175;BMP280;50469;50.438;-119.202;2022-09-09T06:19:04;97798.31;;;11.19
64175;BMP280;50469;50.438;-119.202;2022-09-09T06:21:34;97795.28;;;11.14
64175;BMP280;50469;50.438;-119.202;2022-09-09T06:24:03;97797.56;;;11.19
64175;BMP280;50469;50.438;-119.202;2022-09-09T06:26:36;97798.38;;;10.98
64175;BMP280;50469;50.438;-119.202;2022-09-09T06:29:05;97804.13;;;10.93
64175;BMP280;50469;50.438;-119.202;2022-09-09T06:31:34;97806.78;;;11.00
64175;BMP280;50469;50.438;-119.202;2022-09-09T06:34:05;97803.72;;;10.98
64175;BMP280;50469;50.438;-119.202;2022-09-09T06:36:36;97797.97;;;10.96
64175;BMP280;50469;50.438;-119.202;2022-09-09T06:39:05;97799.94;;;10.59
64175;BMP280;50469;50.438;-119.202;2022-09-09T06:41:40;97804.13;;;10.50
64175;BMP280;50469;50.438;-119.202;2022-09-09T06:44:09;97801.06;;;10.48
64175;BMP280;50469;50.438;-119.202;2022-09-09T06:46:39;97793.78;;;10.48
64175;BMP280;50469;50.438;-119.202;2022-09-09T06:49:10;97803.75;;;10.62
64175;BMP280;50469;50.438;-119.202;2022-09-09T06:51:39;97802.22;;;10.54
64175;BMP280;50469;50.438;-119.202;2022-09-09T06:54:07;97805.25;;;10.38
64175;BMP280;50469;50.438;-119.202;2022-09-09T06:56:39;97806.03;;;10.38
64175;BMP280;50469;50.438;-119.202;2022-09-09T06:59:08;97807.91;;;10.45
64175;BMP280;50469;50.438;-119.202;2022-09-09T07:01:41;97808.34;;;10.36
64175;BMP280;50469;50.438;-119.202;2022-09-09T07:04:12;97814.84;;;10.64
64175;BMP280;50469;50.438;-119.202;2022-09-09T07:06:45;97816.72;;;10.71
64175;BMP280;50469;50.438;-119.202;2022-09-09T07:09:17;97805.28;;;10.81
64175;BMP280;50469;50.438;-119.202;2022-09-09T07:11:49;97811.38;;;10.71
64175;BMP280;50469;50.438;-119.202;2022-09-09T07:14:19;97810.63;;;10.56
64175;BMP280;50469;50.438;-119.202;2022-09-09T07:16:47;97814.47;;;10.44
64175;BMP280;50469;50.438;-119.202;2022-09-09T07:19:15;97814.44;;;10.48
64175;BMP280;50469;50.438;-119.202;2022-09-09T07:21:46;97825.06;;;10.01
64175;BMP280;50469;50.438;-119.202;2022-09-09T07:24:14;97828.16;;;10.21
64175;BMP280;50469;50.438;-119.202;2022-09-09T07:26:45;97832.75;;;10.17
64175;BMP280;50469;50.438;-119.202;2022-09-09T07:29:13;97829.66;;;10.08
64175;BMP280;50469;50.438;-119.202;2022-09-09T07:31:46;97823.91;;;9.99
64175;BMP280;50469;50.438;-119.202;2022-09-09T07:34:14;97826.25;;;10.14
64175;BMP280;50469;50.438;-119.202;2022-09-09T07:36:45;97828.19;;;10.32
64175;BMP280;50469;50.438;-119.202;2022-09-09T07:39:14;97824.41;;;10.51
64175;BMP280;50469;50.438;-119.202;2022-09-09T07:41:44;97834.69;;;10.45
64175;BMP280;50469;50.438;-119.202;2022-09-09T07:44:15;97832.38;;;10.29
64175;BMP280;50469;50.438;-119.202;2022-09-09T07:46:44;97828.94;;;10.25
64175;BMP280;50469;50.438;-119.202;2022-09-09T07:49:13;97830.47;;;10.19
64175;BMP280;50469;50.438;-119.202;2022-09-09T07:51:43;97836.84;;;9.82
64175;BMP280;50469;50.438;-119.202;2022-09-09T07:54:14;97834.69;;;9.36
64175;BMP280;50469;50.438;-119.202;2022-09-09T07:56:42;97837.22;;;9.15
64175;BMP280;50469;50.438;-119.202;2022-09-09T07:59:13;97835.28;;;9.12
64175;BMP280;50469;50.438;-119.202;2022-09-09T08:01:43;97827.69;;;9.21
64175;BMP280;50469;50.438;-119.202;2022-09-09T08:04:16;97839.19;;;9.25
64175;BMP280;50469;50.438;-119.202;2022-09-09T08:06:50;97833.50;;;9.34
64175;BMP280;50469;50.438;-119.202;2022-09-09T08:09:22;97831.22;;;9.32
64175;BMP280;50469;50.438;-119.202;2022-09-09T08:11:50;97834.66;;;9.33
64175;BMP280;50469;50.438;-119.202;2022-09-09T08:14:21;97836.47;;;9.18
64175;BMP280;50469;50.438;-119.202;2022-09-09T08:16:50;97842.34;;;9.41
64175;BMP280;50469;50.438;-119.202;2022-09-09T08:19:23;97835.19;;;9.56
64175;BMP280;50469;50.438;-119.202;2022-09-09T08:21:51;97831.72;;;9.52
64175;BMP280;50469;50.438;-119.202;2022-09-09T08:24:19;97841.22;;;9.42
64175;BMP280;50469;50.438;-119.202;2022-09-09T08:26:48;97840.09;;;9.47
64175;BMP280;50469;50.438;-119.202;2022-09-09T08:29:17;97844.59;;;9.32
64175;BMP280;50469;50.438;-119.202;2022-09-09T08:31:51;97840.81;;;9.37
64175;BMP280;50469;50.438;-119.202;2022-09-09T08:34:19;97836.13;;;9.23
64175;BMP280;50469;50.438;-119.202;2022-09-09T08:36:50;97836.06;;;9.16
64175;BMP280;50469;50.438;-119.202;2022-09-09T08:39:20;97848.63;;;8.67
64175;BMP280;50469;50.438;-119.202;2022-09-09T08:58:19;97855.13;;;8.66
64175;BMP280;50469;50.438;-119.202;2022-09-09T09:09:36;97859.28;;;8.26
64175;BMP280;50469;50.438;-119.202;2022-09-09T09:12:22;97850.81;;;8.54
64175;BMP280;50469;50.438;-119.202;2022-09-09T09:14:56;97840.53;;;8.56
64175;BMP280;50469;50.438;-119.202;2022-09-09T09:17:26;97843.81;;;8.80
64175;BMP280;50469;50.438;-119.202;2022-09-09T09:19:55;97844.19;;;8.78
64175;BMP280;50469;50.438;-119.202;2022-09-09T09:22:36;97842.19;;;8.72
64175;BMP280;50469;50.438;-119.202;2022-09-09T09:25:23;97854.03;;;8.71
64175;BMP280;50469;50.438;-119.202;2022-09-09T09:30:56;97837.06;;;8.52
64175;BMP280;50469;50.438;-119.202;2022-09-09T09:33:46;97845.81;;;8.49
64175;BMP280;50469;50.438;-119.202;2022-09-09T09:36:15;97838.91;;;8.44
64175;BMP280;50469;50.438;-119.202;2022-09-09T09:39:03;97850.53;;;8.29
64175;BMP280;50469;50.438;-119.202;2022-09-09T09:41:53;97847.91;;;7.99
64175;BMP280;50469;50.438;-119.202;2022-09-09T09:47:16;97852.09;;;8.00
64175;BMP280;50469;50.438;-119.202;2022-09-09T09:52:26;97853.56;;;7.94
64175;BMP280;50469;50.438;-119.202;2022-09-09T09:54:57;97846.06;;;7.73
64175;BMP280;50469;50.438;-119.202;2022-09-09T09:57:33;97852.53;;;7.45
64175;BMP280;50469;50.438;-119.202;2022-09-09T10:00:22;97863.78;;;7.35
64175;BMP280;50469;50.438;-119.202;2022-09-09T10:02:50;97853.78;;;7.28
64175;BMP280;50469;50.438;-119.202;2022-09-09T10:05:25;97861.75;;;7.28
64175;BMP280;50469;50.438;-119.202;2022-09-09T10:08:12;97861.97;;;7.39
64175;BMP280;50469;50.438;-119.202;2022-09-09T10:11:04;97853.28;;;7.46
64175;BMP280;50469;50.438;-119.202;2022-09-09T10:19:13;97860.41;;;6.69
64175;BMP280;50469;50.438;-119.202;2022-09-09T10:27:22;97865.03;;;6.95
64175;BMP280;50469;50.438;-119.202;2022-09-09T10:32:45;97860.66;;;7.06
64175;BMP280;50469;50.438;-119.202;2022-09-09T10:52:03;97872.69;;;6.97
64175;BMP280;50469;50.438;-119.202;2022-09-09T11:00:03;97871.66;;;7.28
64175;BMP280;50469;50.438;-119.202;2022-09-09T11:02:33;97868.59;;;7.26
64175;BMP280;50469;50.438;-119.202;2022-09-09T11:07:44;97866.75;;;7.07
64175;BMP280;50469;50.438;-119.202;2022-09-09T11:14:01;97881.53;;;7.04
64175;BMP280;50469;50.438;-119.202;2022-09-09T11:21:49;97885.03;;;6.85
64175;BMP280;50469;50.438;-119.202;2022-09-09T11:27:21;97882.88;;;6.52
64175;BMP280;50469;50.438;-119.202;2022-09-09T11:32:46;97882.84;;;6.48
64175;BMP280;50469;50.438;-119.202;2022-09-09T11:35:39;97883.19;;;6.47
64175;BMP280;50469;50.438;-119.202;2022-09-09T11:38:26;97880.19;;;6.29
64175;BMP280;50469;50.438;-119.202;2022-09-09T11:43:28;97890.03;;;6.09
64175;BMP280;50469;50.438;-119.202;2022-09-09T11:46:02;97891.34;;;5.83
64175;BMP280;50469;50.438;-119.202;2022-09-09T11:48:41;97882.56;;;5.79
64175;BMP280;50469;50.438;-119.202;2022-09-09T11:51:12;97885.63;;;5.81
64175;BMP280;50469;50.438;-119.202;2022-09-09T11:54:25;97893.38;;;5.71
64175;BMP280;50469;50.438;-119.202;2022-09-09T11:56:49;97885.41;;;5.55
64175;BMP280;50469;50.438;-119.202;2022-09-09T11:59:26;97886.75;;;5.80
64175;BMP280;50469;50.438;-119.202;2022-09-09T12:02:14;97890.06;;;5.93
64175;BMP280;50469;50.438;-119.202;2022-09-09T12:04:54;97897.69;;;5.95
64175;BMP280;50469;50.438;-119.202;2022-09-09T12:07:33;97895.22;;;5.86
64175;BMP280;50469;50.438;-119.202;2022-09-09T12:10:19;97894.53;;;5.89
64175;BMP280;50469;50.438;-119.202;2022-09-09T12:12:48;97894.38;;;5.82
64175;BMP280;50469;50.438;-119.202;2022-09-09T12:15:20;97892.78;;;5.61
64175;BMP280;50469;50.438;-119.202;2022-09-09T12:17:53;97893.34;;;5.86
64175;BMP280;50469;50.438;-119.202;2022-09-09T12:20:34;97893.53;;;5.78
64175;BMP280;50469;50.438;-119.202;2022-09-09T12:26:29;97902.94;;;5.91
64175;BMP280;50469;50.438;-119.202;2022-09-09T12:35:09;97901.56;;;5.65
64175;BMP280;50469;50.438;-119.202;2022-09-09T12:37:42;97906.50;;;5.63
64175;BMP280;50469;50.438;-119.202;2022-09-09T12:42:46;97904.59;;;5.80
64175;BMP280;50469;50.438;-119.202;2022-09-09T12:45:22;97909.22;;;5.67
64175;BMP280;50469;50.438;-119.202;2022-09-09T12:48:17;97912.63;;;5.67
64175;BMP280;50469;50.438;-119.202;2022-09-09T12:50:51;97904.94;;;5.46
64175;BMP280;50469;50.438;-119.202;2022-09-09T12:56:25;97916.50;;;5.86
64175;BMP280;50469;50.438;-119.202;2022-09-09T12:58:56;97911.09;;;5.82
64175;BMP280;50469;50.438;-119.202;2022-09-09T13:01:32;97906.38;;;5.76
64175;BMP280;50469;50.438;-119.202;2022-09-09T13:04:00;97909.31;;;5.71
64175;BMP280;50469;50.438;-119.202;2022-09-09T13:06:32;97910.25;;;5.78
64175;BMP280;50469;50.438;-119.202;2022-09-09T13:09:01;97918.56;;;5.77
64175;BMP280;50469;50.438;-119.202;2022-09-09T13:11:41;97923.25;;;5.67
64175;BMP280;50469;50.438;-119.202;2022-09-09T13:14:42;97916.41;;;5.66
64175;BMP280;50469;50.438;-119.202;2022-09-09T13:17:37;97927.72;;;5.79
64175;BMP280;50469;50.438;-119.202;2022-09-09T13:20:17;97921.81;;;5.86
64175;BMP280;50469;50.438;-119.202;2022-09-09T13:22:48;97923.75;;;5.89
64175;BMP280;50469;50.438;-119.202;2022-09-09T13:28:04;97932.44;;;5.54
64175;BMP280;50469;50.438;-119.202;2022-09-09T13:30:35;97948.91;;;5.00
64175;BMP280;50469;50.438;-119.202;2022-09-09T13:35:52;97939.41;;;5.15
64175;BMP280;50469;50.438;-119.202;2022-09-09T13:38:23;97935.41;;;5.21
64175;BMP280;50469;50.438;-119.202;2022-09-09T13:41:09;97936.31;;;5.41
64175;BMP280;50469;50.438;-119.202;2022-09-09T13:43:43;97950.44;;;5.29
64175;BMP280;50469;50.438;-119.202;2022-09-09T13:54:03;97965.84;;;5.23
64175;BMP280;50469;50.438;-119.202;2022-09-09T13:56:31;97963.28;;;5.27
64175;BMP280;50469;50.438;-119.202;2022-09-09T13:58:59;97960.53;;;5.39
64175;BMP280;50469;50.438;-119.202;2022-09-09T14:01:29;97954.63;;;5.46
64175;BMP280;50469;50.438;-119.202;2022-09-09T14:03:58;97962.88;;;5.57
64175;BMP280;50469;50.438;-119.202;2022-09-09T14:06:26;97961.50;;;5.63
64175;BMP280;50469;50.438;-119.202;2022-09-09T14:08:54;97955.00;;;5.60
64175;BMP280;50469;50.438;-119.202;2022-09-09T14:11:25;97966.47;;;5.64
64175;BMP280;50469;50.438;-119.202;2022-09-09T14:13:53;97969.28;;;5.72
64175;BMP280;50469;50.438;-119.202;2022-09-09T14:16:22;97974.53;;;5.84
64175;BMP280;50469;50.438;-119.202;2022-09-09T14:18:50;97968.50;;;5.87
64175;BMP280;50469;50.438;-119.202;2022-09-09T14:21:18;97977.78;;;5.61
64175;BMP280;50469;50.438;-119.202;2022-09-09T14:23:46;97967.66;;;5.35
64175;BMP280;50469;50.438;-119.202;2022-09-09T14:26:14;97979.66;;;5.45
64175;BMP280;50469;50.438;-119.202;2022-09-09T14:28:42;97982.47;;;5.68
64175;BMP280;50469;50.438;-119.202;2022-09-09T14:31:22;97984.72;;;5.98
64175;BMP280;50469;50.438;-119.202;2022-09-09T14:33:53;97993.53;;;6.18
64175;BMP280;50469;50.438;-119.202;2022-09-09T14:36:21;97990.75;;;6.30
64175;BMP280;50469;50.438;-119.202;2022-09-09T14:38:52;97988.94;;;6.34
64175;BMP280;50469;50.438;-119.202;2022-09-09T14:41:20;97999.25;;;6.55
64175;BMP280;50469;50.438;-119.202;2022-09-09T14:43:51;97992.84;;;6.76
64175;BMP280;50469;50.438;-119.202;2022-09-09T14:46:24;97996.63;;;6.94
64175;BMP280;50469;50.438;-119.202;2022-09-09T14:48:55;97985.69;;;6.99
64175;BMP280;50469;50.438;-119.202;2022-09-09T14:51:28;97997.31;;;7.10
64175;BMP280;50469;50.438;-119.202;2022-09-09T14:53:58;97996.03;;;7.24
64175;BMP280;50469;50.438;-119.202;2022-09-09T14:56:28;97999.72;;;7.39
64175;BMP280;50469;50.438;-119.202;2022-09-09T14:58:58;98006.28;;;7.45
64175;BMP280;50469;50.438;-119.202;2022-09-09T15:01:27;98001.66;;;7.65
64175;BMP280;50469;50.438;-119.202;2022-09-09T15:04:00;98008.34;;;7.78
64175;BMP280;50469;50.438;-119.202;2022-09-09T15:06:34;98016.47;;;7.85
64175;BMP280;50469;50.438;-119.202;2022-09-09T15:09:03;98009.66;;;8.14
64175;BMP280;50469;50.438;-119.202;2022-09-09T15:11:34;98009.31;;;8.16
64175;BMP280;50469;50.438;-119.202;2022-09-09T15:14:06;98023.56;;;8.27
64175;BMP280;50469;50.438;-119.202;2022-09-09T15:16:35;98021.56;;;8.51
64175;BMP280;50469;50.438;-119.202;2022-09-09T15:19:07;98027.31;;;8.53
64175;BMP280;50469;50.438;-119.202;2022-09-09T15:21:36;98037.66;;;8.54
64175;BMP280;50469;50.438;-119.202;2022-09-09T15:24:05;98031.03;;;8.75
64175;BMP280;50469;50.438;-119.202;2022-09-09T15:26:34;98029.75;;;8.95
64175;BMP280;50469;50.438;-119.202;2022-09-09T15:29:02;98026.31;;;9.32
64175;BMP280;50469;50.438;-119.202;2022-09-09T15:31:31;98035.66;;;9.52
64175;BMP280;50469;50.438;-119.202;2022-09-09T15:34:01;98026.69;;;9.75
64175;BMP280;50469;50.438;-119.202;2022-09-09T15:39:04;98026.84;;;10.04
64175;BMP280;50469;50.438;-119.202;2022-09-09T15:41:33;98025.16;;;10.40
64175;BMP280;50469;50.438;-119.202;2022-09-09T15:44:03;98033.69;;;10.60
64175;BMP280;50469;50.438;-119.202;2022-09-09T15:46:45;98032.59;;;10.75
64175;BMP280;50469;50.438;-119.202;2022-09-09T15:49:27;98029.16;;;10.82
64175;BMP280;50469;50.438;-119.202;2022-09-09T15:51:59;98031.53;;;11.12
64175;BMP280;50469;50.438;-119.202;2022-09-09T15:54:27;98034.22;;;11.30
64175;BMP280;50469;50.438;-119.202;2022-09-09T15:57:01;98025.44;;;11.47
64175;BMP280;50469;50.438;-119.202;2022-09-09T15:59:29;98038.84;;;11.47
64175;BMP280;50469;50.438;-119.202;2022-09-09T16:02:00;98026.97;;;11.56
64175;BMP280;50469;50.438;-119.202;2022-09-09T16:04:29;98033.47;;;11.80
64175;BMP280;50469;50.438;-119.202;2022-09-09T16:07:02;98026.53;;;11.89
64175;BMP280;50469;50.438;-119.202;2022-09-09T16:09:31;98034.91;;;12.24
64175;BMP280;50469;50.438;-119.202;2022-09-09T16:12:03;98030.56;;;12.55
64175;BMP280;50469;50.438;-119.202;2022-09-09T16:14:31;98020.19;;;12.61
64175;BMP280;50469;50.438;-119.202;2022-09-09T16:17:03;98027.81;;;12.73
64175;BMP280;50469;50.438;-119.202;2022-09-09T16:19:34;98031.56;;;12.90
64175;BMP280;50469;50.438;-119.202;2022-09-09T16:22:05;98025.19;;;13.21
64175;BMP280;50469;50.438;-119.202;2022-09-09T16:24:33;98028.09;;;13.45
64175;BMP280;50469;50.438;-119.202;2022-09-09T16:27:02;98026.72;;;13.67
64175;BMP280;50469;50.438;-119.202;2022-09-09T16:29:30;98024.06;;;13.64
64175;BMP280;50469;50.438;-119.202;2022-09-09T16:31:58;98028.88;;;13.83
64175;BMP280;50469;50.438;-119.202;2022-09-09T16:34:30;98022.09;;;14.09
64175;BMP280;50469;50.438;-119.202;2022-09-09T16:36:58;98022.97;;;14.30
64175;BMP280;50469;50.438;-119.202;2022-09-09T16:39:31;98026.34;;;14.41
64175;BMP280;50469;50.438;-119.202;2022-09-09T16:42:02;98011.00;;;14.65
64175;BMP280;50469;50.438;-119.202;2022-09-09T16:44:34;98009.16;;;14.86
64175;BMP280;50469;50.438;-119.202;2022-09-09T16:47:05;98005.59;;;14.92
64175;BMP280;50469;50.438;-119.202;2022-09-09T16:49:35;98013.84;;;15.32